Mary Ann Moran — WDF4572 — position and weather

sailwx.info

Track history (hours):
 
Tides and Currents Weather Stations Pressure Air Temp Water Temp Dewpoint Dewpoint Depression Visibility Wind Speed Wind Dir Waves Ship Positions

Mary Ann Moran

Owner: MORAN TOWING CORPORATION, NEW CANAAN, CT. More information available from US FCC via Universal Licensing System and Coast Guard Vessel Documentation Center.

Last reported at 2015-Jun-04 23:17 UTC. Time now 2015-Jul-08 04:21 UTC.
Position N 27°41' W 082°35'.
Warning: this ship's position is 33 days out of date.

Length 170 m; draft 5 m.

Type: Tow > 200 m length. MMSI: 367453420.

Date/timePositionNaut miles runAvg speedWind from/ knotsBaromVisibWave heightAir tempDewpointWater temp
2015-Jun-04 23:17N 27°41' W 082°35'7 9.9
2015-Jun-04 22:33N 27°47' W 082°30'8 8.1
2015-Jun-04 21:33N 27°55' W 082°27'2 2.3
2015-Jun-04 20:33N 27°57' W 082°27'0 0.0
2015-Jun-04 19:29N 27°57' W 082°27'0 0.0
2015-Jun-04 18:32N 27°57' W 082°27'0 0.0
2015-Jun-04 17:32N 27°57' W 082°27'0 0.0
2015-Jun-04 16:32N 27°57' W 082°27'0 0.0
2015-Jun-04 15:32N 27°57' W 082°27'0 0.0
2015-Jun-04 14:32N 27°57' W 082°27'0 0.0
2015-Jun-04 13:32N 27°57' W 082°27'0 0.0
2015-Jun-04 12:32N 27°57' W 082°27'0 0.0
2015-Jun-04 11:32N 27°57' W 082°27'0 0.0
2015-Jun-04 10:32N 27°57' W 082°27'0 0.0
2015-Jun-04 09:32N 27°57' W 082°27'0 0.0
2015-Jun-04 08:32N 27°57' W 082°27'0 0.0
2015-Jun-04 07:32N 27°57' W 082°27'0 0.0
2015-Jun-04 06:32N 27°57' W 082°27'0 0.0
2015-Jun-04 05:32N 27°57' W 082°27'0 0.0
2015-Jun-04 04:32N 27°57' W 082°27'0 0.0
2015-Jun-04 03:32N 27°57' W 082°27'0 0.0
2015-Jun-04 02:32N 27°57' W 082°27'0 0.0
2015-Jun-04 01:32N 27°57' W 082°27'0 0.0
2015-Jun-04 00:32N 27°57' W 082°27'0 0.0
2015-Jun-03 23:32N 27°57' W 082°27'0 0.0
2015-Jun-03 22:32N 27°57' W 082°27'0 0.0
2015-Jun-03 21:32N 27°57' W 082°27'0 0.0
2015-Jun-03 20:32N 27°57' W 082°27'0 0.0
2015-Jun-03 19:32N 27°57' W 082°27'0 0.0
2015-Jun-03 18:32N 27°57' W 082°27'0 0.0
2015-Jun-03 17:32N 27°57' W 082°27'0 0.0
2015-Jun-03 16:32N 27°57' W 082°27'0 0.0
2015-Jun-03 15:32N 27°57' W 082°27'0 0.0
2015-Jun-03 14:32N 27°57' W 082°27'0 0.0
2015-Jun-03 13:32N 27°57' W 082°27'0 0.0
2015-Jun-03 12:29N 27°57' W 082°27'0 0.0
2015-Jun-03 11:29N 27°57' W 082°27'0 0.0
2015-Jun-03 10:29N 27°57' W 082°27'0 0.0
2015-Jun-03 09:32N 27°57' W 082°27'0 0.0
2015-Jun-03 08:32N 27°57' W 082°27'0 0.0
2015-Jun-03 07:32N 27°57' W 082°27'0 0.0
2015-Jun-03 06:32N 27°57' W 082°27'0 0.0
2015-Jun-03 05:32N 27°57' W 082°27'0 0.0
2015-Jun-03 04:32N 27°57' W 082°27'0 0.0
2015-Jun-03 03:32N 27°57' W 082°27'0 0.0
2015-Jun-03 02:32N 27°57' W 082°27'0 0.0
2015-Jun-03 01:32N 27°57' W 082°27'0 0.0
2015-Jun-03 00:32N 27°57' W 082°27'0 0.0
2015-Jun-02 23:32N 27°57' W 082°27'0 0.0
2015-Jun-02 22:32N 27°57' W 082°27'0 0.0
2015-Jun-02 21:32N 27°57' W 082°27'0 0.0
2015-Jun-02 20:32N 27°57' W 082°27'0 0.0
2015-Jun-02 19:32N 27°57' W 082°27'0 0.0
2015-Jun-02 18:32N 27°57' W 082°27'0 0.0
2015-Jun-02 17:29N 27°57' W 082°27'0 0.4
2015-Jun-02 16:32N 27°57' W 082°27'4 4.0
2015-Jun-02 15:33N 27°53' W 082°26'8 8.3
2015-Jun-02 14:33N 27°46' W 082°31'  
2015-May-27 21:11N 29°36' W 089°52'  
Track history (hours):
 
Tides and Currents Weather Stations Pressure Air Temp Water Temp Dewpoint Dewpoint Depression Visibility Wind Speed Wind Dir Waves Ship Positions

Mary Ann Moran

Owner: MORAN TOWING CORPORATION, NEW CANAAN, CT. More information available from US FCC via Universal Licensing System and Coast Guard Vessel Documentation Center.

Last reported at 2015-Jun-04 23:17 UTC. Time now 2015-Jul-08 04:21 UTC.
Position N 27°41' W 082°35'.
Warning: this ship's position is 33 days out of date.

Length 170 m; draft 5 m.

Type: Tow > 200 m length. MMSI: 367453420.

Date/timePositionNaut miles runAvg speedWind from/ knotsBaromVisibWave heightAir tempDewpointWater temp
2015-Jun-04 23:17N 27°41' W 082°35'7 9.9
2015-Jun-04 22:33N 27°47' W 082°30'8 8.1
2015-Jun-04 21:33N 27°55' W 082°27'2 2.3
2015-Jun-04 20:33N 27°57' W 082°27'0 0.0
2015-Jun-04 19:29N 27°57' W 082°27'0 0.0
2015-Jun-04 18:32N 27°57' W 082°27'0 0.0
2015-Jun-04 17:32N 27°57' W 082°27'0 0.0
2015-Jun-04 16:32N 27°57' W 082°27'0 0.0
2015-Jun-04 15:32N 27°57' W 082°27'0 0.0
2015-Jun-04 14:32N 27°57' W 082°27'0 0.0
2015-Jun-04 13:32N 27°57' W 082°27'0 0.0
2015-Jun-04 12:32N 27°57' W 082°27'0 0.0
2015-Jun-04 11:32N 27°57' W 082°27'0 0.0
2015-Jun-04 10:32N 27°57' W 082°27'0 0.0
2015-Jun-04 09:32N 27°57' W 082°27'0 0.0
2015-Jun-04 08:32N 27°57' W 082°27'0 0.0
2015-Jun-04 07:32N 27°57' W 082°27'0 0.0
2015-Jun-04 06:32N 27°57' W 082°27'0 0.0
2015-Jun-04 05:32N 27°57' W 082°27'0 0.0
2015-Jun-04 04:32N 27°57' W 082°27'0 0.0
2015-Jun-04 03:32N 27°57' W 082°27'0 0.0
2015-Jun-04 02:32N 27°57' W 082°27'0 0.0
2015-Jun-04 01:32N 27°57' W 082°27'0 0.0
2015-Jun-04 00:32N 27°57' W 082°27'0 0.0
2015-Jun-03 23:32N 27°57' W 082°27'0 0.0
2015-Jun-03 22:32N 27°57' W 082°27'0 0.0
2015-Jun-03 21:32N 27°57' W 082°27'0 0.0
2015-Jun-03 20:32N 27°57' W 082°27'0 0.0
2015-Jun-03 19:32N 27°57' W 082°27'0 0.0
2015-Jun-03 18:32N 27°57' W 082°27'0 0.0
2015-Jun-03 17:32N 27°57' W 082°27'0 0.0
2015-Jun-03 16:32N 27°57' W 082°27'0 0.0
2015-Jun-03 15:32N 27°57' W 082°27'0 0.0
2015-Jun-03 14:32N 27°57' W 082°27'0 0.0
2015-Jun-03 13:32N 27°57' W 082°27'0 0.0
2015-Jun-03 12:29N 27°57' W 082°27'0 0.0
2015-Jun-03 11:29N 27°57' W 082°27'0 0.0
2015-Jun-03 10:29N 27°57' W 082°27'0 0.0
2015-Jun-03 09:32N 27°57' W 082°27'0 0.0
2015-Jun-03 08:32N 27°57' W 082°27'0 0.0
2015-Jun-03 07:32N 27°57' W 082°27'0 0.0
2015-Jun-03 06:32N 27°57' W 082°27'0 0.0
2015-Jun-03 05:32N 27°57' W 082°27'0 0.0
2015-Jun-03 04:32N 27°57' W 082°27'0 0.0
2015-Jun-03 03:32N 27°57' W 082°27'0 0.0
2015-Jun-03 02:32N 27°57' W 082°27'0 0.0
2015-Jun-03 01:32N 27°57' W 082°27'0 0.0
2015-Jun-03 00:32N 27°57' W 082°27'0 0.0
2015-Jun-02 23:32N 27°57' W 082°27'0 0.0
2015-Jun-02 22:32N 27°57' W 082°27'0 0.0
2015-Jun-02 21:32N 27°57' W 082°27'0 0.0
2015-Jun-02 20:32N 27°57' W 082°27'0 0.0
2015-Jun-02 19:32N 27°57' W 082°27'0 0.0
2015-Jun-02 18:32N 27°57' W 082°27'0 0.0
2015-Jun-02 17:29N 27°57' W 082°27'0 0.4
2015-Jun-02 16:32N 27°57' W 082°27'4 4.0
2015-Jun-02 15:33N 27°53' W 082°26'8 8.3
2015-Jun-02 14:33N 27°46' W 082°31'  
2015-May-27 21:11N 29°36' W 089°52'  

Dump ship's entire track history